createdAt,value
2022-08-07T00:00:35.930Z,15.71
2022-08-07T00:02:44.571Z,15.67
2022-08-07T00:04:46.466Z,15.65
2022-08-07T00:06:54.115Z,15.66
2022-08-07T00:08:55.789Z,15.66
2022-08-07T00:10:58.216Z,15.65
2022-08-07T00:13:09.866Z,15.64
2022-08-07T00:15:25.840Z,15.61
2022-08-07T00:17:43.490Z,15.56
2022-08-07T00:20:02.643Z,15.53
2022-08-07T00:22:07.125Z,15.48
2022-08-07T00:24:13.704Z,15.45
2022-08-07T00:26:49.465Z,15.44
2022-08-07T00:28:45.632Z,15.43
2022-08-07T00:30:47.826Z,15.42
2022-08-07T00:32:52.380Z,15.38
2022-08-07T00:34:55.797Z,15.33
2022-08-07T00:36:57.678Z,15.32
2022-08-07T00:38:59.390Z,15.31
2022-08-07T00:41:05.814Z,15.30
2022-08-07T00:43:59.054Z,15.30
2022-08-07T00:45:42.179Z,15.30
2022-08-07T00:48:09.009Z,15.29
2022-08-07T00:50:18.980Z,15.29
2022-08-07T00:52:34.214Z,15.25
2022-08-07T00:54:40.667Z,15.21
2022-08-07T00:56:42.799Z,15.18
2022-08-07T00:58:49.786Z,15.19
2022-08-07T01:00:53.474Z,15.21
2022-08-07T01:02:55.785Z,15.21
2022-08-07T01:05:06.753Z,15.20
2022-08-07T01:07:22.140Z,15.19
2022-08-07T01:09:51.112Z,15.19
2022-08-07T01:12:09.830Z,15.17
2022-08-07T01:14:07.984Z,15.17
2022-08-07T01:16:11.860Z,15.19
2022-08-07T01:18:33.075Z,15.18
2022-08-07T01:20:43.557Z,15.14
2022-08-07T01:23:09.002Z,15.09
2022-08-07T01:25:54.479Z,15.04
2022-08-07T01:27:36.980Z,14.96
2022-08-07T01:29:43.334Z,14.91
2022-08-07T01:31:48.229Z,14.88
2022-08-07T01:33:59.660Z,14.85
2022-08-07T01:36:07.559Z,14.84
2022-08-07T01:38:13.964Z,14.82
2022-08-07T01:40:28.181Z,14.76
2022-08-07T01:42:37.604Z,14.69
2022-08-07T01:44:42.152Z,14.62
2022-08-07T01:46:43.898Z,14.56
2022-08-07T01:48:47.874Z,14.50
2022-08-07T01:51:24.772Z,14.47
2022-08-07T01:54:08.434Z,14.43
2022-08-07T01:55:56.062Z,14.32
2022-08-07T01:58:06.819Z,14.20
2022-08-07T02:00:29.017Z,14.10
2022-08-07T02:03:12.310Z,14.10
2022-08-07T02:05:08.954Z,14.12
2022-08-07T02:07:20.915Z,14.08
2022-08-07T02:09:43.616Z,14.02
2022-08-07T02:12:04.541Z,13.96
2022-08-07T02:14:07.935Z,13.91
2022-08-07T02:16:12.000Z,13.91
2022-08-07T02:18:14.146Z,13.97
2022-08-07T02:20:19.690Z,13.99
2022-08-07T02:22:25.962Z,13.98
2022-08-07T02:27:59.341Z,13.80
2022-08-07T02:30:03.580Z,13.75
2022-08-07T02:32:10.750Z,13.71
2022-08-07T02:34:17.279Z,13.66
2022-08-07T02:36:30.865Z,13.61
2022-08-07T02:38:39.131Z,13.56
2022-08-07T02:40:55.598Z,13.48
2022-08-07T02:42:58.861Z,13.44
2022-08-07T02:45:15.986Z,13.41
2022-08-07T02:47:23.946Z,13.42
2022-08-07T02:49:57.964Z,13.40
2022-08-07T02:51:52.216Z,13.36
2022-08-07T02:53:54.986Z,13.31
2022-08-07T02:56:03.568Z,13.26
2022-08-07T02:58:11.327Z,13.24
2022-08-07T03:00:20.187Z,13.25
2022-08-07T03:02:22.653Z,13.28
2022-08-07T03:04:24.458Z,13.30
2022-08-07T03:06:33.082Z,13.31
2022-08-07T03:08:36.437Z,13.29
2022-08-07T03:10:41.022Z,13.29
2022-08-07T03:12:48.798Z,13.28
2022-08-07T03:14:56.266Z,13.28
2022-08-07T03:16:58.249Z,13.28
2022-08-07T03:19:00.697Z,13.28
2022-08-07T03:21:08.230Z,13.27
2022-08-07T03:23:18.921Z,13.23
2022-08-07T03:25:23.775Z,13.21
2022-08-07T03:27:30.677Z,13.23
2022-08-07T03:29:37.350Z,13.28
2022-08-07T03:31:42.911Z,13.27
2022-08-07T03:33:51.804Z,13.25
2022-08-07T03:35:53.982Z,13.18
2022-08-07T03:38:01.832Z,13.10
2022-08-07T03:40:16.203Z,13.06
2022-08-07T03:42:19.998Z,13.04
2022-08-07T03:44:34.309Z,13.03
2022-08-07T03:46:37.619Z,13.04
2022-08-07T03:49:02.892Z,12.97
2022-08-07T03:51:05.973Z,12.91
2022-08-07T03:53:12.318Z,12.83
2022-08-07T03:55:14.734Z,12.75
2022-08-07T03:58:17.978Z,12.75
2022-08-07T03:59:46.618Z,12.72
2022-08-07T04:02:03.919Z,12.69
2022-08-07T04:04:07.794Z,12.64
2022-08-07T04:06:36.265Z,12.55
2022-08-07T04:08:41.541Z,12.48
2022-08-07T04:10:53.802Z,12.40
2022-08-07T04:12:58.166Z,12.39
2022-08-07T04:15:01.253Z,12.41
2022-08-07T04:17:05.230Z,12.40
2022-08-07T04:19:22.487Z,12.35
2022-08-07T04:21:58.801Z,12.26
2022-08-07T04:24:07.535Z,12.18
2022-08-07T04:26:09.748Z,12.09
2022-08-07T04:28:13.638Z,12.05
2022-08-07T04:30:21.290Z,12.08
2022-08-07T04:32:38.003Z,12.08
2022-08-07T04:34:40.083Z,12.02
2022-08-07T04:36:42.929Z,11.94
2022-08-07T04:38:50.093Z,11.85
2022-08-07T04:40:56.528Z,11.81
2022-08-07T04:43:01.837Z,11.81
2022-08-07T04:45:08.212Z,11.83
2022-08-07T04:47:57.159Z,11.86
2022-08-07T04:49:41.975Z,11.84
2022-08-07T04:51:56.899Z,11.78
2022-08-07T04:54:22.567Z,11.65
2022-08-07T04:58:09.386Z,11.52
2022-08-07T05:01:30.214Z,11.39
2022-08-07T05:04:06.566Z,11.41
2022-08-07T05:06:19.363Z,11.47
2022-08-07T05:08:45.392Z,11.39
2022-08-07T05:11:02.342Z,11.29
2022-08-07T05:14:56.260Z,11.23
2022-08-07T05:15:40.677Z,11.18
2022-08-07T05:17:54.725Z,11.22
2022-08-07T05:19:57.727Z,11.37
2022-08-07T05:22:01.976Z,11.41
2022-08-07T05:24:13.813Z,11.39
2022-08-07T05:26:24.427Z,11.32
2022-08-07T05:28:27.616Z,11.25
2022-08-07T05:30:32.351Z,11.21
2022-08-07T05:32:35.386Z,11.22
2022-08-07T05:34:37.756Z,11.32
2022-08-07T05:36:40.527Z,11.45
2022-08-07T05:42:08.895Z,11.51
2022-08-07T05:44:18.037Z,11.50
2022-08-07T05:46:31.567Z,11.50
2022-08-07T05:48:33.115Z,11.53
2022-08-07T05:50:39.391Z,11.59
2022-08-07T05:52:44.789Z,11.72
2022-08-07T05:54:53.356Z,11.77
2022-08-07T05:56:58.860Z,11.78
2022-08-07T05:59:15.545Z,11.80
2022-08-07T06:01:18.111Z,11.86
2022-08-07T06:03:23.015Z,11.98
2022-08-07T06:05:29.058Z,12.13
2022-08-07T06:08:14.073Z,12.23
2022-08-07T06:10:05.316Z,12.33
2022-08-07T06:12:08.216Z,12.37
2022-08-07T06:14:11.417Z,12.43
2022-08-07T06:16:23.401Z,12.50
2022-08-07T06:18:32.680Z,12.63
2022-08-07T06:20:50.941Z,12.76
2022-08-07T06:23:24.953Z,12.91
2022-08-07T06:25:22.244Z,13.03
2022-08-07T06:28:00.077Z,13.12
2022-08-07T06:29:47.310Z,13.21
2022-08-07T06:31:51.507Z,13.29
2022-08-07T06:33:53.494Z,13.39
2022-08-07T06:36:11.755Z,13.53
2022-08-07T06:38:20.261Z,13.68
2022-08-07T06:40:25.092Z,13.79
2022-08-07T06:42:37.580Z,13.91
2022-08-07T06:44:40.278Z,14.01
2022-08-07T06:46:42.263Z,14.11
2022-08-07T06:48:45.998Z,14.22
2022-08-07T06:50:48.404Z,14.33
2022-08-07T06:52:55.737Z,14.43
2022-08-07T06:55:33.101Z,14.55
2022-08-07T06:57:20.944Z,14.70
2022-08-07T07:00:11.759Z,14.83
2022-08-07T07:02:06.432Z,14.93
2022-08-07T07:04:27.998Z,15.03
2022-08-07T07:06:31.788Z,15.14
2022-08-07T07:08:39.636Z,15.23
2022-08-07T07:10:56.889Z,15.32
2022-08-07T07:13:07.101Z,15.40
2022-08-07T07:15:24.061Z,15.47
2022-08-07T07:17:38.818Z,15.55
2022-08-07T07:19:57.442Z,15.64
2022-08-07T07:22:05.430Z,15.74
2022-08-07T07:24:17.217Z,15.83
2022-08-07T07:26:31.331Z,15.92
2022-08-07T07:28:48.585Z,16.03
2022-08-07T07:31:30.285Z,16.12
2022-08-07T07:33:43.932Z,16.20
2022-08-07T07:39:52.098Z,16.42
2022-08-07T07:42:09.132Z,16.50
2022-08-07T07:44:25.814Z,16.59
2022-08-07T07:46:38.295Z,16.67
2022-08-07T07:48:59.888Z,16.76
2022-08-07T07:51:10.997Z,16.88
2022-08-07T07:53:23.307Z,17.03
2022-08-07T07:55:37.087Z,17.17
2022-08-07T07:57:52.459Z,17.28
2022-08-07T07:59:55.886Z,17.38
2022-08-07T08:02:10.266Z,17.47
2022-08-07T08:04:12.332Z,17.60
2022-08-07T08:06:15.107Z,17.72
2022-08-07T08:08:32.402Z,17.83
2022-08-07T08:10:38.865Z,17.96
2022-08-07T08:12:58.894Z,18.06
2022-08-07T08:15:06.907Z,18.19
2022-08-07T08:17:55.362Z,18.28
2022-08-07T08:20:19.349Z,18.40
2022-08-07T08:22:21.138Z,18.49
2022-08-07T08:25:18.484Z,18.61
2022-08-07T08:27:22.926Z,18.74
2022-08-07T08:38:38.115Z,19.18
2022-08-07T08:40:48.069Z,19.27
2022-08-07T08:42:55.207Z,19.34
2022-08-07T08:45:13.404Z,19.35
2022-08-07T08:47:52.199Z,19.41
2022-08-07T08:50:34.910Z,19.55
2022-08-07T08:53:02.949Z,19.71
2022-08-07T08:55:54.831Z,19.79
2022-08-07T08:58:20.314Z,19.92
2022-08-07T09:00:30.598Z,19.98
2022-08-07T09:02:46.243Z,20.08
2022-08-07T09:05:08.217Z,20.17
2022-08-07T09:07:57.606Z,20.27
2022-08-07T09:10:23.338Z,20.43
2022-08-07T09:12:53.473Z,20.58
2022-08-07T09:16:25.159Z,20.78
2022-08-07T09:17:59.226Z,20.85
2022-08-07T09:20:35.448Z,20.94
2022-08-07T09:24:28.933Z,21.03
2022-08-07T09:25:24.406Z,21.18
2022-08-07T09:28:00.644Z,21.36
2022-08-07T09:30:08.697Z,21.53
2022-08-07T09:32:42.486Z,21.62
2022-08-07T09:34:56.999Z,21.69
2022-08-07T09:37:11.892Z,21.73
2022-08-07T09:39:55.327Z,21.88
2022-08-07T09:42:02.956Z,22.07
2022-08-07T09:44:32.846Z,22.21
2022-08-07T09:47:49.712Z,22.27
2022-08-07T09:50:02.317Z,22.43
2022-08-07T09:52:35.669Z,22.64
2022-08-07T09:55:28.836Z,22.76
2022-08-07T09:57:53.624Z,22.94
2022-08-07T10:00:14.749Z,23.05
2022-08-07T10:02:24.252Z,23.18
2022-08-07T10:04:58.191Z,23.32
2022-08-07T10:07:24.249Z,23.52
2022-08-07T10:10:00.640Z,23.64
2022-08-07T10:12:30.565Z,23.71
2022-08-07T10:15:01.880Z,23.88
2022-08-07T10:17:23.546Z,24.03
2022-08-07T10:19:38.469Z,24.22
2022-08-07T10:22:14.942Z,24.56
2022-08-07T10:24:40.086Z,24.99
2022-08-07T10:27:00.169Z,25.33
2022-08-07T10:29:35.110Z,25.64
2022-08-07T10:31:52.289Z,25.92
2022-08-07T10:34:05.625Z,26.13
2022-08-07T10:36:29.647Z,26.50
2022-08-07T10:38:53.283Z,26.81
2022-08-07T10:41:46.267Z,27.29
2022-08-07T10:44:07.684Z,27.79
2022-08-07T10:46:15.970Z,27.94
2022-08-07T10:48:41.106Z,27.85
2022-08-07T10:50:53.413Z,27.86
2022-08-07T10:53:26.583Z,27.99
2022-08-07T10:55:37.631Z,28.12
2022-08-07T10:58:31.878Z,28.22
2022-08-07T11:01:11.624Z,28.19
2022-08-07T11:03:37.470Z,28.50
2022-08-07T11:06:22.128Z,28.92
2022-08-07T11:08:43.423Z,29.48
2022-08-07T11:11:00.084Z,30.02
2022-08-07T11:14:44.810Z,30.24
2022-08-07T11:15:54.313Z,30.42
2022-08-07T11:18:04.759Z,30.74
2022-08-07T11:20:12.084Z,30.98
2022-08-07T11:22:27.199Z,31.29
2022-08-07T11:25:06.849Z,31.61
2022-08-07T11:27:17.827Z,31.79
2022-08-07T11:29:53.848Z,31.90
2022-08-07T11:32:42.993Z,31.91
2022-08-07T11:34:49.998Z,31.82
2022-08-07T11:37:18.219Z,31.68
2022-08-07T11:39:39.635Z,31.45
2022-08-07T11:42:21.858Z,31.20
2022-08-07T11:44:57.726Z,31.15
2022-08-07T11:47:58.919Z,31.19
2022-08-07T11:50:32.195Z,31.24
2022-08-07T11:53:01.527Z,31.20
2022-08-07T11:56:25.670Z,31.38
2022-08-07T11:58:24.970Z,31.89
2022-08-07T12:00:48.882Z,32.19
2022-08-07T12:03:44.893Z,32.40
2022-08-07T12:06:37.937Z,32.47
2022-08-07T12:08:37.198Z,32.65
2022-08-07T12:10:48.931Z,32.48
2022-08-07T12:13:18.901Z,32.57
2022-08-07T12:16:05.170Z,32.86
2022-08-07T12:18:29.643Z,33.31
2022-08-07T12:20:39.055Z,33.72
2022-08-07T12:22:58.345Z,33.98
2022-08-07T12:26:02.822Z,34.36
2022-08-07T12:28:08.578Z,34.88
2022-08-07T12:30:13.166Z,35.24
2022-08-07T12:32:24.406Z,35.41
2022-08-07T12:34:29.585Z,35.47
2022-08-07T12:36:35.123Z,35.47
2022-08-07T12:38:47.188Z,35.42
2022-08-07T12:40:50.486Z,35.25
2022-08-07T12:42:57.061Z,35.29
2022-08-07T12:45:04.475Z,35.22
2022-08-07T12:47:21.725Z,35.07
2022-08-07T12:49:51.160Z,34.95
2022-08-07T12:52:18.192Z,34.66
2022-08-07T12:54:38.345Z,34.34
2022-08-07T12:56:51.010Z,33.95
2022-08-07T12:58:59.644Z,33.80
2022-08-07T13:01:07.831Z,33.65
2022-08-07T13:03:53.625Z,33.81
2022-08-07T13:06:03.216Z,34.05
2022-08-07T13:08:21.933Z,34.53
2022-08-07T13:10:39.355Z,34.93
2022-08-07T13:13:02.481Z,35.28
2022-08-07T13:15:34.553Z,35.33
2022-08-07T13:17:51.265Z,35.08
2022-08-07T13:20:06.465Z,34.97
2022-08-07T13:22:27.764Z,35.11
2022-08-07T13:24:43.927Z,35.51
2022-08-07T13:27:10.581Z,35.85
2022-08-07T13:29:19.368Z,35.68
2022-08-07T13:31:32.029Z,35.36
2022-08-07T13:34:34.251Z,35.07
2022-08-07T13:36:19.820Z,35.01
2022-08-07T13:38:59.538Z,34.95
2022-08-07T13:41:30.234Z,34.79
2022-08-07T13:43:35.122Z,34.56
2022-08-07T13:46:11.893Z,34.61
2022-08-07T13:48:06.923Z,35.11
2022-08-07T13:50:33.239Z,35.50
2022-08-07T13:52:42.215Z,35.97
2022-08-07T13:54:49.269Z,36.05
2022-08-07T13:56:56.038Z,35.92
2022-08-07T13:59:01.500Z,35.82
2022-08-07T14:01:15.829Z,35.85
2022-08-07T14:03:29.929Z,35.79
2022-08-07T14:05:49.334Z,35.84
2022-08-07T14:10:02.166Z,35.99
2022-08-07T14:12:54.761Z,36.10
2022-08-07T14:15:08.877Z,35.68
2022-08-07T14:17:32.461Z,35.26
2022-08-07T14:22:11.567Z,35.19
2022-08-07T14:22:40.876Z,35.18
2022-08-07T14:24:29.360Z,35.27
2022-08-07T14:26:51.155Z,35.08
2022-08-07T14:29:08.497Z,34.82
2022-08-07T14:31:13.907Z,34.43
2022-08-07T14:33:22.549Z,34.24
2022-08-07T14:35:42.785Z,34.31
2022-08-07T14:38:03.053Z,34.77
2022-08-07T14:40:26.843Z,35.13
2022-08-07T14:42:32.212Z,35.41
2022-08-07T14:44:35.049Z,35.56
2022-08-07T14:46:38.297Z,35.78
2022-08-07T14:48:59.102Z,35.84
2022-08-07T14:51:21.988Z,35.96
2022-08-07T14:54:05.623Z,36.09
2022-08-07T14:55:55.771Z,36.15
2022-08-07T14:57:59.416Z,36.02
2022-08-07T15:00:06.099Z,35.82
2022-08-07T15:04:42.382Z,35.37
2022-08-07T15:06:55.481Z,35.21
2022-08-07T15:09:59.695Z,35.16
2022-08-07T15:11:53.250Z,35.42
2022-08-07T15:14:09.978Z,35.68
2022-08-07T15:16:14.650Z,35.65
2022-08-07T15:18:33.646Z,35.74
2022-08-07T15:20:55.545Z,36.03
2022-08-07T15:23:01.397Z,36.34
2022-08-07T15:25:26.228Z,36.57
2022-08-07T15:28:01.981Z,36.89
2022-08-07T15:30:16.238Z,36.79
2022-08-07T15:32:40.040Z,36.63
2022-08-07T15:34:58.984Z,36.47
2022-08-07T15:38:04.583Z,36.23
2022-08-07T15:42:44.050Z,36.33
2022-08-07T15:44:52.063Z,36.41
2022-08-07T15:46:58.589Z,36.53
2022-08-07T15:49:14.655Z,36.46
2022-08-07T15:51:17.792Z,36.87
2022-08-07T15:53:51.893Z,37.35
2022-08-07T15:56:02.861Z,37.73
2022-08-07T15:58:11.662Z,38.02
2022-08-07T16:00:40.061Z,38.36
2022-08-07T16:02:46.954Z,38.49
2022-08-07T16:04:56.420Z,38.56
2022-08-07T16:07:05.055Z,38.49
2022-08-07T16:09:41.058Z,38.09
2022-08-07T16:12:12.418Z,37.91
2022-08-07T16:14:20.674Z,37.95
2022-08-07T16:16:48.519Z,37.80
2022-08-07T16:19:12.980Z,37.69
2022-08-07T16:22:01.627Z,37.87
2022-08-07T16:24:34.939Z,37.79
2022-08-07T16:27:02.955Z,37.66
2022-08-07T16:30:09.137Z,37.84
2022-08-07T16:32:04.977Z,38.15
2022-08-07T16:34:23.696Z,38.15
2022-08-07T16:36:47.890Z,38.05
2022-08-07T16:39:33.725Z,38.40
2022-08-07T16:41:57.739Z,38.60
2022-08-07T16:44:47.483Z,38.84
2022-08-07T16:47:51.171Z,39.17
2022-08-07T16:50:41.867Z,39.38
2022-08-07T16:53:05.721Z,39.47
2022-08-07T16:55:47.184Z,39.61
2022-08-07T16:58:04.230Z,39.70
2022-08-07T17:00:15.139Z,39.54
2022-08-07T17:02:51.311Z,39.53
2022-08-07T17:06:01.472Z,39.62
2022-08-07T17:07:57.904Z,39.37
2022-08-07T17:10:32.860Z,38.88
2022-08-07T17:12:44.205Z,38.30
2022-08-07T17:14:52.922Z,37.92
2022-08-07T17:16:59.844Z,37.91
2022-08-07T17:19:04.817Z,38.02
2022-08-07T17:21:23.629Z,38.23
2022-08-07T17:24:16.266Z,38.35
2022-08-07T17:26:58.308Z,38.64
2022-08-07T17:29:04.547Z,38.97
2022-08-07T17:31:23.136Z,39.13
2022-08-07T17:34:09.640Z,38.96
2022-08-07T17:35:55.959Z,38.87
2022-08-07T17:38:23.638Z,38.64
2022-08-07T17:40:44.383Z,38.06
2022-08-07T17:43:02.801Z,37.86
2022-08-07T17:45:23.598Z,37.58
2022-08-07T17:47:41.844Z,37.37
2022-08-07T17:49:58.578Z,37.20
2022-08-07T17:52:12.721Z,36.96
2022-08-07T17:54:29.638Z,36.97
2022-08-07T17:56:58.187Z,36.81
2022-08-07T17:59:16.992Z,36.57
2022-08-07T18:01:36.818Z,36.13
2022-08-07T18:03:53.979Z,35.43
2022-08-07T18:06:16.482Z,34.66
2022-08-07T18:09:01.085Z,34.00
2022-08-07T18:12:07.762Z,33.51
2022-08-07T18:14:06.720Z,33.03
2022-08-07T18:17:05.806Z,32.60
2022-08-07T18:21:07.461Z,31.98
2022-08-07T18:22:02.356Z,31.36
2022-08-07T18:24:42.788Z,30.94
2022-08-07T18:27:06.433Z,30.40
2022-08-07T18:30:07.390Z,29.97
2022-08-07T18:31:38.978Z,29.57
2022-08-07T18:34:28.605Z,29.26
2022-08-07T18:43:06.441Z,27.87
2022-08-07T18:45:39.779Z,27.61
2022-08-07T18:47:44.369Z,27.38
2022-08-07T18:50:38.084Z,27.24
2022-08-07T18:52:54.460Z,27.02
2022-08-07T18:55:40.524Z,26.75
2022-08-07T18:57:59.454Z,26.44
2022-08-07T19:00:34.580Z,26.25
2022-08-07T19:03:19.643Z,26.06
2022-08-07T19:06:03.844Z,25.86
2022-08-07T19:08:11.302Z,25.69
2022-08-07T19:10:21.258Z,25.59
2022-08-07T19:12:30.095Z,25.52
2022-08-07T19:16:02.909Z,25.45
2022-08-07T19:18:02.338Z,25.33
2022-08-07T19:20:29.078Z,25.22
2022-08-07T19:22:47.345Z,25.10
2022-08-07T19:24:50.353Z,24.97
2022-08-07T19:27:09.330Z,24.86
2022-08-07T19:30:57.841Z,24.71
2022-08-07T19:32:10.832Z,24.53
2022-08-07T19:34:13.591Z,24.35
2022-08-07T19:36:43.732Z,24.26
2022-08-07T19:38:55.945Z,24.16
2022-08-07T19:41:00.653Z,24.03
2022-08-07T19:43:21.573Z,23.94
2022-08-07T19:46:07.968Z,23.87
2022-08-07T19:48:02.742Z,23.68
2022-08-07T19:50:43.900Z,23.52
2022-08-07T19:52:58.457Z,23.30
2022-08-07T19:55:02.874Z,23.14
2022-08-07T19:58:01.762Z,23.01
2022-08-07T20:00:08.914Z,22.83
2022-08-07T20:02:52.171Z,22.69
2022-08-07T20:04:56.773Z,22.54
2022-08-07T20:06:58.692Z,22.40
2022-08-07T20:09:01.885Z,22.29
2022-08-07T20:14:53.530Z,22.15
2022-08-07T20:16:57.336Z,22.03
2022-08-07T20:19:00.002Z,21.90
2022-08-07T20:21:20.992Z,21.78
2022-08-07T20:23:42.026Z,21.63
2022-08-07T20:25:51.098Z,21.44
2022-08-07T20:27:58.576Z,21.32
2022-08-07T20:30:11.019Z,21.20
2022-08-07T20:32:23.113Z,21.04
2022-08-07T20:34:49.558Z,20.93
2022-08-07T20:36:52.073Z,20.82
2022-08-07T20:39:00.241Z,20.72
2022-08-07T20:41:03.879Z,20.58
2022-08-07T20:43:14.560Z,20.45
2022-08-07T20:45:33.397Z,20.30
2022-08-07T20:47:56.853Z,20.06
2022-08-07T20:50:01.990Z,19.84
2022-08-07T20:52:13.856Z,19.67
2022-08-07T20:54:30.023Z,19.55
2022-08-07T20:56:46.227Z,19.44
2022-08-07T20:58:53.686Z,19.33
2022-08-07T21:01:21.415Z,19.24
2022-08-07T21:03:29.635Z,19.09
2022-08-07T21:05:50.781Z,18.95
2022-08-07T21:07:59.722Z,18.87
2022-08-07T21:10:05.677Z,18.76
2022-08-07T21:12:15.861Z,18.66
2022-08-07T21:14:39.473Z,18.59
2022-08-07T21:18:00.904Z,18.45
2022-08-07T21:19:32.138Z,18.27
2022-08-07T21:21:57.507Z,18.19
2022-08-07T21:23:59.339Z,18.13
2022-08-07T21:26:12.009Z,18.10
2022-08-07T21:28:47.718Z,18.05
2022-08-07T21:30:47.490Z,17.99
2022-08-07T21:33:17.713Z,17.90
2022-08-07T21:36:03.772Z,17.71
2022-08-07T21:38:02.245Z,17.53
2022-08-07T21:40:04.219Z,17.43
2022-08-07T21:42:41.906Z,17.32
2022-08-07T21:44:44.843Z,17.23
2022-08-07T21:47:07.457Z,17.22
2022-08-07T21:50:01.853Z,17.22
2022-08-07T21:52:33.166Z,17.22
2022-08-07T21:54:38.471Z,17.23
2022-08-07T21:57:30.838Z,17.24
2022-08-07T22:00:05.341Z,17.23
2022-08-07T22:02:13.393Z,17.09
2022-08-07T22:04:20.363Z,16.98
2022-08-07T22:06:30.195Z,16.90
2022-08-07T22:08:49.021Z,16.81
2022-08-07T22:10:58.349Z,16.72
2022-08-07T22:13:05.932Z,16.68
2022-08-07T22:16:43.304Z,16.66
2022-08-07T22:17:46.996Z,16.59
2022-08-07T22:20:22.914Z,16.54
2022-08-07T22:22:44.747Z,16.49
2022-08-07T22:24:46.536Z,16.41
2022-08-07T22:27:04.714Z,16.37
2022-08-07T22:29:13.764Z,16.32
2022-08-07T22:31:59.106Z,16.30
2022-08-07T22:34:18.210Z,16.31
2022-08-07T22:37:14.814Z,16.29
2022-08-07T22:39:53.003Z,16.29
2022-08-07T22:42:36.045Z,16.28
2022-08-07T22:44:57.904Z,16.29
2022-08-07T22:47:42.821Z,16.26
2022-08-07T22:50:01.086Z,16.25
2022-08-07T22:52:37.833Z,16.31
2022-08-07T22:54:49.906Z,16.40
2022-08-07T22:56:56.577Z,16.43
2022-08-07T22:59:36.070Z,16.46
2022-08-07T23:02:04.794Z,16.63
2022-08-07T23:04:56.734Z,16.85
2022-08-07T23:07:25.907Z,17.14
2022-08-07T23:13:49.009Z,17.58
2022-08-07T23:16:44.415Z,17.65
2022-08-07T23:19:48.188Z,17.66
2022-08-07T23:21:53.577Z,17.65
2022-08-07T23:24:17.278Z,17.66
2022-08-07T23:26:25.312Z,17.66
2022-08-07T23:34:21.804Z,17.54
2022-08-07T23:35:07.009Z,17.48
2022-08-07T23:37:19.877Z,17.42
2022-08-07T23:40:15.921Z,17.34
2022-08-07T23:42:53.439Z,17.25
2022-08-07T23:45:03.765Z,17.20
2022-08-07T23:47:05.422Z,17.18
2022-08-07T23:49:42.023Z,17.17
2022-08-07T23:53:00.607Z,17.18
2022-08-07T23:54:44.236Z,17.22
2022-08-07T23:57:12.927Z,17.28
